createdAt,value
2023-10-14T00:01:32.012Z,2.65
2023-10-14T00:03:58.903Z,3.00
2023-10-14T00:06:26.558Z,2.40
2023-10-14T00:08:58.913Z,2.60
2023-10-14T00:11:36.427Z,2.88
2023-10-14T00:14:15.925Z,2.65
2023-10-14T00:16:43.670Z,3.17
2023-10-14T00:19:10.711Z,2.95
2023-10-14T00:21:38.286Z,2.50
2023-10-14T00:24:07.916Z,2.65
2023-10-14T00:26:36.062Z,3.05
2023-10-14T00:29:32.649Z,3.27
2023-10-14T00:32:00.525Z,3.53
2023-10-14T00:34:27.281Z,3.42
2023-10-14T00:37:00.084Z,3.30
2023-10-14T00:39:31.184Z,2.97
2023-10-14T00:41:59.337Z,2.60
2023-10-14T00:44:26.489Z,3.13
2023-10-14T00:46:55.097Z,4.43
2023-10-14T00:49:23.910Z,2.53
2023-10-14T00:52:00.344Z,2.72
2023-10-14T00:54:47.737Z,3.40
2023-10-14T00:57:17.767Z,3.60
2023-10-14T00:59:46.110Z,3.35
2023-10-14T01:02:13.345Z,2.72
2023-10-14T01:04:41.951Z,3.17
2023-10-14T01:07:14.501Z,2.83
2023-10-14T01:09:42.338Z,3.60
2023-10-14T01:12:29.499Z,3.33
2023-10-14T01:15:00.688Z,2.97
2023-10-14T01:17:31.225Z,3.40
2023-10-14T01:20:26.274Z,3.63
2023-10-14T01:22:56.327Z,4.03
2023-10-14T01:25:31.102Z,4.03
2023-10-14T01:28:00.818Z,3.78
2023-10-14T01:30:33.902Z,3.78
2023-10-14T01:33:20.728Z,4.20
2023-10-14T01:35:52.703Z,3.92
2023-10-14T01:38:19.241Z,3.92
2023-10-14T01:40:50.373Z,3.72
2023-10-14T01:43:17.536Z,3.15
2023-10-14T01:45:58.087Z,3.73
2023-10-14T01:48:33.905Z,3.80
2023-10-14T01:51:00.568Z,3.60
2023-10-14T01:53:29.447Z,3.15
2023-10-14T01:55:59.496Z,3.38
2023-10-14T01:58:29.452Z,3.93
2023-10-14T02:01:08.720Z,3.50
2023-10-14T02:03:43.347Z,4.13
2023-10-14T02:06:18.223Z,3.55
2023-10-14T02:08:52.880Z,4.80
2023-10-14T02:11:25.302Z,4.20
2023-10-14T02:13:53.441Z,3.55
2023-10-14T02:16:30.705Z,3.78
2023-10-14T02:19:15.683Z,3.60
2023-10-14T02:21:43.377Z,4.03
2023-10-14T02:24:11.706Z,4.73
2023-10-14T02:26:39.911Z,3.58
2023-10-14T02:29:11.768Z,4.95
2023-10-14T02:31:38.425Z,4.57
2023-10-14T02:34:09.775Z,4.25
2023-10-14T02:36:49.671Z,4.23
2023-10-14T02:39:28.625Z,3.78
2023-10-14T02:42:00.246Z,4.35
2023-10-14T02:44:33.961Z,3.60
2023-10-14T02:47:10.448Z,5.15
2023-10-14T02:49:41.207Z,4.33
2023-10-14T02:52:13.727Z,4.03
2023-10-14T02:54:55.378Z,3.90
2023-10-14T02:57:27.315Z,3.95
2023-10-14T02:59:58.504Z,4.97
2023-10-14T03:02:27.424Z,3.73
2023-10-14T03:04:57.216Z,4.03
2023-10-14T03:07:31.925Z,3.90
2023-10-14T03:10:13.102Z,4.50
2023-10-14T03:12:41.148Z,3.67
2023-10-14T03:15:21.344Z,4.30
2023-10-14T03:18:02.833Z,4.82
2023-10-14T03:20:31.613Z,3.80
2023-10-14T03:22:59.316Z,3.90
2023-10-14T03:25:28.465Z,4.03
2023-10-14T03:28:16.146Z,4.70
2023-10-14T03:30:45.853Z,5.05
2023-10-14T03:33:20.258Z,4.80
2023-10-14T03:35:58.136Z,3.55
2023-10-14T03:38:34.217Z,4.05
2023-10-14T03:41:05.406Z,4.60
2023-10-14T03:43:43.818Z,4.30
2023-10-14T03:46:16.104Z,4.35
2023-10-14T03:48:49.876Z,4.43
2023-10-14T03:51:26.780Z,4.55
2023-10-14T03:53:58.014Z,4.73
2023-10-14T03:56:30.557Z,4.85
2023-10-14T03:58:59.862Z,4.80
2023-10-14T04:01:39.792Z,4.55
2023-10-14T04:04:18.331Z,4.18
2023-10-14T04:07:13.295Z,4.30
2023-10-14T04:09:53.004Z,4.72
2023-10-14T04:12:38.617Z,4.43
2023-10-14T04:15:12.983Z,4.55
2023-10-14T04:17:39.936Z,4.88
2023-10-14T04:20:10.522Z,5.07
2023-10-14T04:22:41.147Z,4.85
2023-10-14T04:25:09.448Z,4.10
2023-10-14T04:27:56.802Z,3.72
2023-10-14T04:30:31.770Z,5.25
2023-10-14T04:33:17.506Z,4.50
2023-10-14T04:36:02.598Z,4.90
2023-10-14T04:38:39.238Z,4.47
2023-10-14T04:41:13.990Z,3.80
2023-10-14T04:43:49.484Z,4.20
2023-10-14T04:46:18.063Z,3.57
2023-10-14T04:49:00.665Z,3.80
2023-10-14T04:51:39.142Z,4.53
2023-10-14T04:54:10.527Z,4.45
2023-10-14T04:56:37.428Z,3.90
2023-10-14T04:59:06.786Z,4.00
2023-10-14T05:01:33.965Z,4.95
2023-10-14T05:04:01.024Z,3.75
2023-10-14T05:06:30.996Z,4.78
2023-10-14T05:08:58.041Z,4.50
2023-10-14T05:11:27.317Z,4.47
2023-10-14T05:14:08.883Z,5.07
2023-10-14T05:16:56.489Z,4.35
2023-10-14T05:19:42.755Z,3.80
2023-10-14T05:22:42.524Z,4.20
2023-10-14T05:25:17.537Z,4.83
2023-10-14T05:27:56.011Z,5.07
2023-10-14T05:30:24.419Z,4.63
2023-10-14T05:32:52.750Z,4.72
2023-10-14T05:35:23.298Z,4.20
2023-10-14T05:37:51.669Z,4.10
2023-10-14T05:40:18.721Z,4.78
2023-10-14T05:42:46.871Z,5.10
2023-10-14T05:45:14.146Z,4.07
2023-10-14T05:47:42.314Z,5.25
2023-10-14T05:50:15.844Z,5.17
2023-10-14T05:52:44.596Z,4.60
2023-10-14T05:55:11.681Z,4.25
2023-10-14T05:57:40.991Z,5.15
2023-10-14T06:00:24.686Z,4.65
2023-10-14T06:02:54.895Z,5.20
2023-10-14T06:05:23.218Z,5.82
2023-10-14T06:07:50.348Z,5.13
2023-10-14T06:10:24.758Z,5.85
2023-10-14T06:12:54.115Z,5.47
2023-10-14T06:15:20.992Z,5.03
2023-10-14T06:17:51.403Z,4.70
2023-10-14T06:20:21.498Z,3.92
2023-10-14T06:22:48.159Z,4.63
2023-10-14T06:25:17.901Z,4.65
2023-10-14T06:27:46.584Z,4.63
2023-10-14T06:30:20.399Z,4.85
2023-10-14T06:32:54.434Z,3.72
2023-10-14T06:35:21.374Z,4.88
2023-10-14T06:37:48.221Z,4.35
2023-10-14T06:40:15.557Z,4.47
2023-10-14T06:42:44.715Z,5.63
2023-10-14T06:45:14.848Z,4.10
2023-10-14T06:47:47.319Z,4.60
2023-10-14T06:50:14.337Z,3.63
2023-10-14T06:52:42.106Z,4.93
2023-10-14T06:55:08.857Z,3.90
2023-10-14T06:57:39.606Z,4.40
2023-10-14T07:00:13.659Z,5.07
2023-10-14T07:02:41.101Z,4.55
2023-10-14T07:05:10.535Z,4.67
2023-10-14T07:07:38.431Z,4.75
2023-10-14T07:10:06.620Z,5.13
2023-10-14T07:12:33.187Z,4.68
2023-10-14T07:14:59.789Z,4.88
2023-10-14T07:17:26.960Z,4.80
2023-10-14T07:19:53.558Z,6.30
2023-10-14T07:22:22.459Z,4.57
2023-10-14T07:24:49.858Z,4.47
2023-10-14T07:27:19.162Z,4.90
2023-10-14T07:29:47.155Z,4.17
2023-10-14T07:32:16.974Z,3.92
2023-10-14T07:34:43.708Z,4.45
2023-10-14T07:37:10.654Z,5.20
2023-10-14T07:39:37.646Z,4.53
2023-10-14T07:42:10.566Z,3.97
2023-10-14T07:44:37.281Z,4.22
2023-10-14T07:47:06.630Z,4.72
2023-10-14T07:49:34.904Z,5.50
2023-10-14T07:52:07.646Z,4.93
2023-10-14T07:54:38.556Z,4.30
2023-10-14T07:57:07.408Z,4.85
2023-10-14T07:59:35.813Z,5.10
2023-10-14T08:02:04.248Z,4.20
2023-10-14T08:04:30.874Z,5.15
2023-10-14T08:06:57.525Z,5.30
2023-10-14T08:09:29.811Z,5.75
2023-10-14T08:11:56.422Z,4.95
2023-10-14T08:14:22.962Z,5.38
2023-10-14T08:16:50.064Z,4.97
2023-10-14T08:19:17.511Z,4.63
2023-10-14T08:21:44.433Z,4.65
2023-10-14T08:24:15.748Z,4.78
2023-10-14T08:26:42.642Z,4.78
2023-10-14T08:29:09.173Z,4.05
2023-10-14T08:31:35.687Z,4.70
2023-10-14T08:34:08.472Z,5.18
2023-10-14T08:36:35.139Z,4.97
2023-10-14T08:39:01.742Z,5.05
2023-10-14T08:41:34.210Z,4.65
2023-10-14T08:44:09.673Z,4.70
2023-10-14T08:46:41.185Z,4.50
2023-10-14T08:49:10.609Z,5.32
2023-10-14T08:51:53.760Z,4.18
2023-10-14T08:54:25.188Z,4.70
2023-10-14T08:56:52.454Z,5.93
2023-10-14T08:59:18.993Z,4.30
2023-10-14T09:01:48.499Z,4.45
2023-10-14T09:04:27.472Z,5.55
2023-10-14T09:06:54.112Z,4.53
2023-10-14T09:09:24.499Z,4.57
2023-10-14T09:11:52.347Z,4.28
2023-10-14T09:14:19.193Z,5.05
2023-10-14T09:16:54.938Z,5.25
2023-10-14T09:19:23.178Z,4.40
2023-10-14T09:21:50.031Z,4.83
2023-10-14T09:24:20.099Z,3.42
2023-10-14T09:26:46.628Z,4.82
2023-10-14T09:29:13.221Z,4.65
2023-10-14T09:31:42.547Z,3.70
2023-10-14T09:34:22.338Z,4.73
2023-10-14T09:36:53.232Z,4.63
2023-10-14T09:39:26.224Z,3.97
2023-10-14T09:41:55.043Z,3.42
2023-10-14T09:44:23.154Z,4.18
2023-10-14T09:46:54.099Z,4.00
2023-10-14T09:49:24.160Z,4.05
2023-10-14T09:51:55.065Z,3.53
2023-10-14T09:54:24.906Z,3.83
2023-10-14T09:56:54.052Z,4.30
2023-10-14T09:59:23.037Z,3.90
2023-10-14T10:01:49.848Z,3.92
2023-10-14T10:04:23.053Z,4.15
2023-10-14T10:07:17.309Z,4.50
2023-10-14T10:10:14.929Z,4.43
2023-10-14T10:12:43.363Z,4.63
2023-10-14T10:15:10.409Z,4.13
2023-10-14T10:17:40.951Z,3.67
2023-10-14T10:20:13.502Z,3.83
2023-10-14T10:22:51.575Z,4.78
2023-10-14T10:25:21.697Z,4.33
2023-10-14T10:27:53.494Z,4.03
2023-10-14T10:30:21.223Z,4.32
2023-10-14T10:32:52.037Z,4.30
2023-10-14T10:35:20.714Z,3.50
2023-10-14T10:37:57.875Z,5.00
2023-10-14T10:40:29.233Z,4.72
2023-10-14T10:42:58.535Z,4.20
2023-10-14T10:45:35.938Z,3.55
2023-10-14T10:48:07.024Z,4.28
2023-10-14T10:50:35.988Z,4.00
2023-10-14T10:53:08.906Z,4.00
2023-10-14T10:55:40.241Z,3.35
2023-10-14T10:58:09.767Z,3.65
2023-10-14T11:00:39.538Z,3.58
2023-10-14T11:03:06.976Z,3.40
2023-10-14T11:05:37.216Z,3.50
2023-10-14T11:08:06.538Z,3.40
2023-10-14T11:10:40.429Z,3.65
2023-10-14T11:13:12.320Z,4.32
2023-10-14T11:15:40.969Z,4.30
2023-10-14T11:18:14.844Z,3.85
2023-10-14T11:20:48.201Z,3.45
2023-10-14T11:23:17.408Z,4.15
2023-10-14T11:25:48.652Z,3.22
2023-10-14T11:28:16.520Z,3.80
2023-10-14T11:30:45.877Z,3.72
2023-10-14T11:33:14.066Z,3.15
2023-10-14T11:35:41.427Z,3.08
2023-10-14T11:38:09.468Z,3.00
2023-10-14T11:40:48.467Z,3.23
2023-10-14T11:43:17.160Z,3.85
2023-10-14T11:45:46.840Z,2.97
2023-10-14T11:48:34.647Z,3.50
2023-10-14T11:51:03.791Z,3.45
2023-10-14T11:53:34.270Z,4.33
2023-10-14T11:56:04.032Z,3.05
2023-10-14T11:58:32.578Z,2.97
2023-10-14T12:01:00.072Z,2.90
2023-10-14T12:03:27.017Z,3.60
2023-10-14T12:05:58.745Z,3.97
2023-10-14T12:08:30.635Z,4.30
2023-10-14T12:10:58.856Z,3.35
2023-10-14T12:13:41.744Z,3.88
2023-10-14T12:16:13.150Z,3.60
2023-10-14T12:18:39.688Z,3.63
2023-10-14T12:21:06.542Z,2.92
2023-10-14T12:23:33.340Z,3.58
2023-10-14T12:26:01.846Z,3.95
2023-10-14T12:28:34.659Z,3.40
2023-10-14T12:31:09.972Z,3.20
2023-10-14T12:33:36.881Z,3.20
2023-10-14T12:36:12.082Z,3.28
2023-10-14T12:38:44.072Z,2.95
2023-10-14T12:41:23.790Z,2.67
2023-10-14T12:43:53.576Z,2.87
2023-10-14T12:46:21.155Z,2.92
2023-10-14T12:48:49.775Z,2.75
2023-10-14T12:51:26.679Z,3.72
2023-10-14T12:53:58.950Z,3.03
2023-10-14T12:56:31.415Z,2.40
2023-10-14T12:58:58.954Z,3.53
2023-10-14T13:01:25.878Z,2.80
2023-10-14T13:03:54.527Z,3.05
2023-10-14T13:06:25.740Z,3.35
2023-10-14T13:08:53.050Z,3.30
2023-10-14T13:11:19.809Z,3.13
2023-10-14T13:13:51.723Z,2.85
2023-10-14T13:16:19.816Z,2.40
2023-10-14T13:18:48.584Z,2.42
2023-10-14T13:21:20.515Z,2.90
2023-10-14T13:23:50.491Z,2.55
2023-10-14T13:26:17.998Z,2.25
2023-10-14T13:28:46.807Z,3.03
2023-10-14T13:31:14.314Z,2.60
2023-10-14T13:33:42.942Z,2.60
2023-10-14T13:36:12.261Z,3.10
2023-10-14T13:38:40.902Z,3.40
2023-10-14T13:41:10.224Z,3.38
2023-10-14T13:43:39.309Z,3.55
2023-10-14T13:46:06.063Z,2.50
2023-10-14T13:48:32.652Z,2.83
2023-10-14T13:50:59.660Z,2.42
2023-10-14T13:53:26.479Z,2.78
2023-10-14T13:55:55.812Z,2.80
2023-10-14T13:58:26.318Z,2.50
2023-10-14T14:00:54.242Z,2.75
2023-10-14T14:03:22.698Z,2.53
2023-10-14T14:05:50.072Z,3.30
2023-10-14T14:08:18.355Z,2.88
2023-10-14T14:10:45.919Z,2.70
2023-10-14T14:13:17.833Z,3.08
2023-10-14T14:15:45.752Z,3.88
2023-10-14T14:18:12.339Z,3.72
2023-10-14T14:20:38.923Z,3.50
2023-10-14T14:23:07.294Z,4.30
2023-10-14T14:25:34.725Z,4.17
2023-10-14T14:28:02.846Z,4.07
2023-10-14T14:30:29.492Z,4.45
2023-10-14T14:32:56.195Z,3.58
2023-10-14T14:35:27.477Z,2.77
2023-10-14T14:37:57.003Z,3.90
2023-10-14T14:40:25.859Z,3.45
2023-10-14T14:42:54.849Z,3.80
2023-10-14T14:45:24.929Z,3.15
2023-10-14T14:47:59.367Z,4.13
2023-10-14T14:50:30.326Z,4.50
2023-10-14T14:52:58.840Z,3.88
2023-10-14T14:55:26.698Z,4.07
2023-10-14T14:57:55.804Z,4.15
2023-10-14T15:00:27.909Z,4.37
2023-10-14T15:02:58.614Z,4.97
2023-10-14T15:05:35.318Z,5.00
2023-10-14T15:08:03.709Z,5.43
2023-10-14T15:10:34.911Z,5.05
2023-10-14T15:13:07.633Z,5.33
2023-10-14T15:15:36.801Z,4.90
2023-10-14T15:18:03.738Z,4.68
2023-10-14T15:20:30.675Z,4.90
2023-10-14T15:22:57.992Z,4.40
2023-10-14T15:25:25.759Z,3.60
2023-10-14T15:27:55.634Z,3.80
2023-10-14T15:30:25.271Z,4.15
2023-10-14T15:32:52.665Z,3.60
2023-10-14T15:35:26.781Z,3.47
2023-10-14T15:37:58.257Z,3.67
2023-10-14T15:40:25.782Z,5.00
2023-10-14T15:42:52.673Z,3.13
2023-10-14T15:45:26.164Z,4.25
2023-10-14T15:47:55.441Z,3.90
2023-10-14T15:50:24.155Z,4.67
2023-10-14T15:52:52.921Z,3.63
2023-10-14T15:55:23.797Z,3.38
2023-10-14T15:57:52.886Z,3.40
2023-10-14T16:00:27.458Z,3.15
2023-10-14T16:02:55.149Z,3.97
2023-10-14T16:05:22.736Z,3.53
2023-10-14T16:07:58.080Z,3.63
2023-10-14T16:10:25.083Z,3.70
2023-10-14T16:12:54.608Z,3.55
2023-10-14T16:15:22.773Z,3.43
2023-10-14T16:17:53.896Z,3.10
2023-10-14T16:20:22.769Z,4.70
2023-10-14T16:22:51.227Z,3.50
2023-10-14T16:25:20.528Z,3.83
2023-10-14T16:27:47.688Z,4.47
2023-10-14T16:30:15.939Z,4.00
2023-10-14T16:32:46.965Z,2.83
2023-10-14T16:35:15.489Z,3.50
2023-10-14T16:37:42.525Z,4.10
2023-10-14T16:40:19.489Z,4.73
2023-10-14T16:42:54.978Z,4.13
2023-10-14T16:45:22.166Z,4.60
2023-10-14T16:47:51.734Z,3.92
2023-10-14T16:50:20.348Z,3.85
2023-10-14T16:52:49.020Z,4.20
2023-10-14T16:55:17.030Z,4.18
2023-10-14T16:57:45.680Z,4.53
2023-10-14T17:00:14.009Z,4.80
2023-10-14T17:02:42.519Z,4.85
2023-10-14T17:05:14.009Z,5.13
2023-10-14T17:07:44.929Z,4.85
2023-10-14T17:10:15.337Z,4.68
2023-10-14T17:12:48.288Z,6.03
2023-10-14T17:15:19.677Z,4.22
2023-10-14T17:18:07.317Z,5.43
2023-10-14T17:20:40.615Z,6.72
2023-10-14T17:23:07.259Z,7.88
2023-10-14T17:25:34.882Z,8.73
2023-10-14T17:28:06.462Z,7.88
2023-10-14T17:30:33.794Z,6.73
2023-10-14T17:33:08.791Z,6.20
2023-10-14T17:35:35.966Z,4.53
2023-10-14T17:38:05.485Z,5.10
2023-10-14T17:40:39.625Z,5.28
2023-10-14T17:43:07.956Z,5.63
2023-10-14T17:45:35.333Z,4.97
2023-10-14T17:48:06.037Z,5.15
2023-10-14T17:50:34.806Z,4.85
2023-10-14T17:53:09.938Z,4.68
2023-10-14T17:55:37.589Z,5.03
2023-10-14T17:58:05.222Z,4.60
2023-10-14T18:00:32.876Z,4.30
2023-10-14T18:03:09.039Z,5.25
2023-10-14T18:05:46.393Z,5.53
2023-10-14T18:08:13.450Z,5.37
2023-10-14T18:10:40.851Z,5.20
2023-10-14T18:13:08.829Z,4.60
2023-10-14T18:15:40.340Z,4.53
2023-10-14T18:18:09.984Z,5.57
2023-10-14T18:20:38.111Z,5.43
2023-10-14T18:23:06.379Z,5.28
2023-10-14T18:25:39.579Z,4.82
2023-10-14T18:28:07.260Z,4.97
2023-10-14T18:30:43.549Z,5.03
2023-10-14T18:33:12.150Z,5.60
2023-10-14T18:35:40.586Z,5.28
2023-10-14T18:38:11.958Z,5.53
2023-10-14T18:40:39.851Z,5.28
2023-10-14T18:43:07.438Z,5.25
2023-10-14T18:45:37.310Z,5.50
2023-10-14T18:48:10.884Z,6.55
2023-10-14T18:50:40.051Z,6.55
2023-10-14T18:53:09.753Z,6.65
2023-10-14T18:55:39.420Z,6.32
2023-10-14T18:58:08.348Z,5.77
2023-10-14T19:00:37.975Z,5.80
2023-10-14T19:03:05.365Z,5.43
2023-10-14T19:05:35.853Z,6.57
2023-10-14T19:08:04.306Z,6.38
2023-10-14T19:10:33.227Z,6.23
2023-10-14T19:13:00.835Z,8.05
2023-10-14T19:15:33.124Z,5.70
2023-10-14T19:18:09.653Z,7.47
2023-10-14T19:20:41.126Z,6.78
2023-10-14T19:23:08.524Z,7.17
2023-10-14T19:25:44.830Z,7.78
2023-10-14T19:28:11.540Z,9.63
2023-10-14T19:30:41.052Z,7.95
2023-10-14T19:33:09.279Z,7.85
2023-10-14T19:35:43.202Z,6.97
2023-10-14T19:38:11.440Z,8.20
2023-10-14T19:40:39.912Z,7.15
2023-10-14T19:43:07.824Z,6.65
2023-10-14T19:45:34.417Z,6.85
2023-10-14T19:48:01.014Z,6.80
2023-10-14T19:50:31.349Z,9.55
2023-10-14T19:52:59.144Z,13.18
2023-10-14T19:55:29.289Z,14.07
2023-10-14T19:58:02.294Z,13.45
2023-10-14T20:00:32.114Z,12.50
2023-10-14T20:03:03.334Z,11.45
2023-10-14T20:05:36.791Z,10.30
2023-10-14T20:08:05.439Z,7.38
2023-10-14T20:10:41.495Z,8.07
2023-10-14T20:13:19.409Z,6.83
2023-10-14T20:15:48.394Z,6.65
2023-10-14T20:18:18.004Z,7.57
2023-10-14T20:20:47.940Z,7.68
2023-10-14T20:23:14.906Z,9.32
2023-10-14T20:25:43.644Z,11.63
2023-10-14T20:28:20.622Z,10.38
2023-10-14T20:30:48.652Z,11.68
2023-10-14T20:33:21.266Z,18.05
2023-10-14T20:35:48.485Z,15.50
2023-10-14T20:38:15.284Z,12.20
2023-10-14T20:40:45.236Z,13.88
2023-10-14T20:43:12.332Z,14.05
2023-10-14T20:45:41.327Z,14.13
2023-10-14T20:48:08.475Z,14.60
2023-10-14T20:50:36.594Z,15.10
2023-10-14T20:53:06.402Z,15.73
2023-10-14T20:55:34.400Z,14.70
2023-10-14T20:58:04.115Z,14.77
2023-10-14T21:00:38.798Z,12.77
2023-10-14T21:03:09.806Z,13.93
2023-10-14T21:05:41.482Z,14.55
2023-10-14T21:08:15.882Z,15.85
2023-10-14T21:10:48.223Z,32.53
2023-10-14T21:13:18.518Z,23.58
2023-10-14T21:15:46.517Z,17.03
2023-10-14T21:18:17.749Z,21.42
2023-10-14T21:20:47.537Z,19.17
2023-10-14T21:23:18.222Z,18.52
2023-10-14T21:25:45.610Z,15.45
2023-10-14T21:28:15.614Z,13.50
2023-10-14T21:30:42.596Z,11.57
2023-10-14T21:33:09.349Z,11.32
2023-10-14T21:35:37.813Z,36.42
2023-10-14T21:38:05.492Z,18.88
2023-10-14T21:40:33.116Z,16.07
2023-10-14T21:43:01.142Z,23.88
2023-10-14T21:45:38.258Z,23.08
2023-10-14T21:48:06.159Z,16.85
2023-10-14T21:50:33.275Z,13.40
2023-10-14T21:53:02.676Z,13.20
2023-10-14T21:55:29.521Z,14.02
2023-10-14T21:57:59.885Z,15.32
2023-10-14T22:00:39.790Z,77.25
2023-10-14T22:03:08.926Z,17.50
2023-10-14T22:05:37.200Z,19.57
2023-10-14T22:08:06.313Z,21.15
2023-10-14T22:10:33.437Z,21.35
2023-10-14T22:13:00.067Z,11.65
2023-10-14T22:15:29.814Z,8.27
2023-10-14T22:18:01.163Z,7.80
2023-10-14T22:20:31.465Z,7.43
2023-10-14T22:23:00.833Z,6.35
2023-10-14T22:25:28.432Z,6.00
2023-10-14T22:27:55.725Z,8.15
2023-10-14T22:30:22.976Z,6.23
2023-10-14T22:32:50.495Z,6.20
2023-10-14T22:35:19.857Z,6.88
2023-10-14T22:37:48.123Z,6.18
2023-10-14T22:40:17.786Z,5.75
2023-10-14T22:42:50.620Z,6.57
2023-10-14T22:45:19.048Z,5.93
2023-10-14T22:47:46.955Z,5.18
2023-10-14T22:50:17.287Z,5.38
2023-10-14T22:52:45.456Z,6.97
2023-10-14T22:55:14.435Z,5.63
2023-10-14T22:57:45.884Z,6.65
2023-10-14T23:00:13.974Z,6.63
2023-10-14T23:02:44.970Z,6.22
2023-10-14T23:05:17.863Z,6.15
2023-10-14T23:07:50.941Z,5.97
2023-10-14T23:10:23.083Z,6.05
2023-10-14T23:12:51.314Z,5.43
2023-10-14T23:15:19.787Z,6.10
2023-10-14T23:17:54.600Z,6.18
2023-10-14T23:20:21.910Z,5.57
2023-10-14T23:22:50.287Z,5.53
2023-10-14T23:25:16.910Z,5.20
2023-10-14T23:27:44.240Z,5.85
2023-10-14T23:30:19.968Z,5.25
2023-10-14T23:32:48.661Z,5.90
2023-10-14T23:35:24.558Z,5.18
2023-10-14T23:37:59.824Z,5.65
2023-10-14T23:40:27.405Z,5.18
2023-10-14T23:43:01.463Z,5.35
2023-10-14T23:45:30.077Z,5.23
2023-10-14T23:47:56.983Z,5.65
2023-10-14T23:50:24.748Z,5.75
2023-10-14T23:52:53.185Z,6.20
2023-10-14T23:55:22.480Z,5.50
2023-10-14T23:57:50.061Z,5.03
